Aérodrome :
LOGIN :

S'inscrire | Disclaimer

   EN    FR    IT 

 










Légende :    VFR   VFR Marginal   IFR   IFR Intensif   IFR Très Intensif
Visi : 
Plafond : 
>= 8 km
>= 3000ft
5 à 8 km
1000 à 3000 ft
1500m à 5 km
500 à 1000 ft
800 à 1500m
200 à 500 ft
< 800m
< 200 ft
Symboles :   Orages  Brouillard  Fortes neiges  Fortes précipitations  Vent > 20 kt
SIGMETs :   Divers  Orages  Givrage  Turbulence  Onde Orograph.  Cendres Volcan.







- Altitude de l'aérodrome : 1682 ft
- Code IATA : VIT


LEVT - Vitoria Gasteiz

DERNIER METAR :
  • 181900Z 00000KT 9999 BKN035 07/04 Q1017

METARs EXPIRÉS :
  • 181830Z 18004KT 9999 BKN040 07/04 Q1017
  • 181800Z VRB02KT 9999 BKN040 07/03 Q1017
  • 181730Z 24004KT 210V270 9999 BKN040 07/03 Q1016
  • 181700Z 25004KT 190V290 9999 BKN045 07/03 Q1016
  • 181630Z 25005KT 210V300 9999 BKN045 08/02 Q1016

TAF TAF LEVT
Valide du 18 à 18h jusqu'au 19 à 18h UTC


181700Z 1818/1918 19009KT 9999 SCT040 TX11/1915Z TN02/1906Z
PROB40
TEMPO 1818/1820 RA
PROB40
TEMPO 1900/1912 23015G25KT
Pas de NOTAMs connus pour ce terrain.



MET'MAP, la Météo Aéronautique d'un coup d'oeil ! - Copyright ORBIFLY Décembre 2007 - Disclaimer

ORBIFLY MET'MAP TEAM :

Programmation & Développement : Alexandra Zaïnal
Conception & Développement : Baudouin d'Aumeries
Co-Programmation & Développement : Marc-Olivier Méhu
Soutien technique & logistique : Manuel Goepfert

Contact : metmap@orbifly.com




SOURCES & CREDITS :

   NOAA